createdAt,value
2022-07-27T00:01:50.763Z,76.65
2022-07-27T00:03:50.559Z,76.94
2022-07-27T00:05:52.072Z,77.4
2022-07-27T00:07:53.084Z,78.49
2022-07-27T00:09:53.981Z,79.25
2022-07-27T00:13:57.118Z,78.55
2022-07-27T00:15:58.321Z,78.68
2022-07-27T00:18:00.105Z,78.56
2022-07-27T00:22:03.294Z,79.37
2022-07-27T00:24:04.305Z,78.98
2022-07-27T00:26:05.513Z,79
2022-07-27T00:28:06.695Z,79.51
2022-07-27T00:30:07.773Z,79.83
2022-07-27T00:32:12.551Z,80.02
2022-07-27T00:34:09.795Z,80.27
2022-07-27T00:36:11.420Z,79.78
2022-07-27T00:38:12.878Z,79.02
2022-07-27T00:40:14.359Z,78.57
2022-07-27T00:42:16.168Z,78.71
2022-07-27T00:44:17.384Z,78.65
2022-07-27T00:46:18.601Z,79.77
2022-07-27T00:48:20.284Z,80.65
2022-07-27T00:50:21.701Z,81.31
2022-07-27T00:52:23.009Z,81.45
2022-07-27T00:54:24.416Z,81.76
2022-07-27T00:56:25.334Z,81.46
2022-07-27T00:58:26.458Z,81.09
2022-07-27T01:00:27.727Z,81.88
2022-07-27T01:02:29.407Z,82.45
2022-07-27T01:04:30.567Z,81.39
2022-07-27T01:06:32.145Z,80.98
2022-07-27T01:08:33.173Z,80.97
2022-07-27T01:12:36.120Z,82.34
2022-07-27T01:14:37.975Z,83.21
2022-07-27T01:16:39.600Z,83.71
2022-07-27T01:18:41.006Z,83.62
2022-07-27T01:22:44.588Z,83.42
2022-07-27T01:24:46.144Z,83.98
2022-07-27T01:26:47.341Z,84.25
2022-07-27T01:28:48.480Z,84.28
2022-07-27T01:30:49.554Z,85
2022-07-27T01:32:51.438Z,84.47
2022-07-27T01:34:52.516Z,84.2
2022-07-27T01:36:54.171Z,84.17
2022-07-27T01:38:55.456Z,84.32
2022-07-27T01:40:56.507Z,85.22
2022-07-27T01:42:58.396Z,85.57
2022-07-27T01:44:59.369Z,85.97
2022-07-27T01:47:00.662Z,85.83
2022-07-27T01:49:02.257Z,86.17
2022-07-27T01:51:04.107Z,86.29
2022-07-27T01:53:05.280Z,86.97
2022-07-27T01:55:06.444Z,86.85
2022-07-27T01:57:07.403Z,86.47
2022-07-27T01:59:08.969Z,86.08
2022-07-27T02:01:10.104Z,85.79
2022-07-27T02:03:11.471Z,85.54
2022-07-27T02:05:13.291Z,85.16
2022-07-27T02:07:14.537Z,85.04
2022-07-27T02:09:15.617Z,85.35
2022-07-27T02:11:16.972Z,85.54
2022-07-27T02:13:22.644Z,87.15
2022-07-27T02:15:19.318Z,87.43
2022-07-27T02:17:20.305Z,86.51
2022-07-27T02:19:21.418Z,87.05
2022-07-27T02:21:22.774Z,87.07
2022-07-27T02:23:23.843Z,86.79
2022-07-27T02:25:25.676Z,86.21
2022-07-27T02:27:26.882Z,85.76
2022-07-27T02:29:28.420Z,84.8
2022-07-27T02:31:32.714Z,84.55
2022-07-27T02:33:30.958Z,84.67
2022-07-27T02:35:32.534Z,84.46
2022-07-27T02:37:33.726Z,85.03
2022-07-27T02:39:35.421Z,85.51
2022-07-27T02:41:36.998Z,87
2022-07-27T02:43:38.811Z,86.81
2022-07-27T02:47:41.136Z,87.19
2022-07-27T02:49:42.947Z,87.09
2022-07-27T02:51:44.605Z,86.25
2022-07-27T02:53:46.237Z,85.52
2022-07-27T02:55:47.594Z,85.93
2022-07-27T02:57:48.539Z,85.62
2022-07-27T02:59:50.341Z,86.08
2022-07-27T03:01:52.211Z,88.1
2022-07-27T03:03:53.788Z,88.02
2022-07-27T03:05:54.864Z,88.51
2022-07-27T03:07:56.117Z,88.08
2022-07-27T03:09:57.544Z,88.49
2022-07-27T03:11:59.407Z,88.47
2022-07-27T03:14:00.761Z,89.29
2022-07-27T03:16:01.982Z,89.35
2022-07-27T03:18:03.704Z,88.87
2022-07-27T03:20:04.970Z,88.86
2022-07-27T03:22:06.873Z,88.61
2022-07-27T03:24:08.451Z,88.31
2022-07-27T03:26:10.286Z,88.4
2022-07-27T03:28:12.038Z,88.34
2022-07-27T03:30:22.862Z,88.28
2022-07-27T03:32:15.135Z,88.38
2022-07-27T03:34:16.620Z,89.75
2022-07-27T03:36:18.149Z,90.28
2022-07-27T03:38:19.638Z,90.42
2022-07-27T03:40:21.519Z,90.45
2022-07-27T03:42:22.957Z,90.29
2022-07-27T03:46:25.124Z,90.37
2022-07-27T03:48:26.623Z,90.24
2022-07-27T03:50:28.465Z,90.81
2022-07-27T03:52:29.531Z,90.72
2022-07-27T03:54:31.445Z,90.4
2022-07-27T03:56:32.966Z,90.49
2022-07-27T03:58:34.201Z,90.2
2022-07-27T04:00:35.956Z,90.04
2022-07-27T04:02:37.337Z,89.68
2022-07-27T04:04:38.732Z,89.93
2022-07-27T04:06:40.578Z,90.8
2022-07-27T04:08:41.616Z,91.06
2022-07-27T04:10:43.355Z,91.18
2022-07-27T04:12:44.851Z,90.73
2022-07-27T04:14:46.147Z,91.62
2022-07-27T04:16:47.837Z,90.69
2022-07-27T04:18:49.096Z,90.52
2022-07-27T04:20:50.436Z,90.38
2022-07-27T04:22:51.556Z,88.62
2022-07-27T04:24:53.267Z,88.32
2022-07-27T04:28:55.633Z,89.03
2022-07-27T04:30:57.401Z,89.88
2022-07-27T04:32:58.549Z,90.28
2022-07-27T04:34:59.880Z,90.51
2022-07-27T04:37:01.328Z,90.56
2022-07-27T04:39:02.298Z,90.44
2022-07-27T04:41:03.454Z,89.98
2022-07-27T04:43:05.331Z,89.68
2022-07-27T04:45:06.894Z,89.11
2022-07-27T04:47:08.029Z,88.63
2022-07-27T04:49:09.572Z,87.92
2022-07-27T04:51:10.329Z,88.59
2022-07-27T04:53:11.423Z,88.96
2022-07-27T04:55:12.424Z,89.31
2022-07-27T04:57:13.632Z,88.97
2022-07-27T04:59:15.363Z,89.18
2022-07-27T05:01:16.127Z,89.24
2022-07-27T05:03:17.583Z,89.09
2022-07-27T05:05:18.580Z,89.17
2022-07-27T05:07:20.440Z,88.76
2022-07-27T05:11:23.665Z,87.79
2022-07-27T05:13:25.314Z,87.59
2022-07-27T05:15:26.659Z,86.38
2022-07-27T05:17:28.375Z,85.06
2022-07-27T05:19:39.694Z,82.21
2022-07-27T05:21:31.304Z,82.08
2022-07-27T05:23:32.746Z,79.69
2022-07-27T05:25:34.262Z,80.23
2022-07-27T05:27:35.802Z,80.81
2022-07-27T05:29:37.341Z,80.64
2022-07-27T05:31:38.414Z,78.76
2022-07-27T05:33:39.580Z,76.96
2022-07-27T05:35:40.757Z,76.97
2022-07-27T05:37:42.378Z,78.45
2022-07-27T05:39:43.997Z,77.19
2022-07-27T05:41:45.271Z,76.23
2022-07-27T05:43:46.200Z,75.08
2022-07-27T05:45:47.348Z,74.2
2022-07-27T05:47:48.946Z,71.99
2022-07-27T05:48:32.739Z,72.41
2022-07-27T05:50:33.517Z,73.27
2022-07-27T05:52:34.358Z,73.52
2022-07-27T05:54:35.860Z,73.69
2022-07-27T05:56:37.617Z,75.48
2022-07-27T05:58:39.361Z,76.47
2022-07-27T06:00:40.819Z,74.62
2022-07-27T06:04:43.289Z,75.08
2022-07-27T06:06:44.641Z,76.37
2022-07-27T06:08:45.857Z,75.65
2022-07-27T06:10:47.674Z,75.35
2022-07-27T06:12:49.001Z,76.78
2022-07-27T06:14:50.755Z,73.89
2022-07-27T06:16:52.040Z,72.68
2022-07-27T06:18:53.349Z,75.32
2022-07-27T06:20:54.362Z,75.61
2022-07-27T06:22:55.852Z,76.06
2022-07-27T06:24:57.408Z,77.35
2022-07-27T06:26:58.860Z,77.04
2022-07-27T06:29:00.428Z,78.18
2022-07-27T06:31:01.949Z,78.13
2022-07-27T06:33:03.142Z,78.37
2022-07-27T06:35:04.860Z,77.67
2022-07-27T06:37:06.042Z,76.62
2022-07-27T06:39:07.382Z,77.12
2022-07-27T06:41:08.549Z,77.47
2022-07-27T06:47:13.373Z,77.29
2022-07-27T06:49:15.299Z,77.48
2022-07-27T06:51:16.499Z,75.79
2022-07-27T06:53:20.749Z,75.22
2022-07-27T06:55:18.558Z,71.51
2022-07-27T06:57:20.132Z,69.97
2022-07-27T06:59:21.592Z,70.37
2022-07-27T07:01:23.279Z,69.2
2022-07-27T07:03:24.887Z,71.35
2022-07-27T07:05:25.942Z,72.3
2022-07-27T07:07:27.009Z,70.1
2022-07-27T07:09:28.474Z,69.18
2022-07-27T07:11:29.412Z,70.79
2022-07-27T07:13:34.149Z,70.46
2022-07-27T07:15:32.083Z,69.68
2022-07-27T07:17:33.654Z,68.53
2022-07-27T07:19:35.364Z,67.66
2022-07-27T07:21:36.902Z,68.59
2022-07-27T07:23:38.257Z,68.45
2022-07-27T07:25:39.087Z,71.3
2022-07-27T07:29:41.803Z,70.15
2022-07-27T07:31:42.814Z,70.68
2022-07-27T07:33:44.227Z,65.91
2022-07-27T07:36:13.088Z,67.38
2022-07-27T07:37:47.380Z,66.24
2022-07-27T07:39:47.508Z,67.48
2022-07-27T07:41:48.984Z,68.66
2022-07-27T07:43:50.636Z,69.29
2022-07-27T07:45:52.375Z,66.81
2022-07-27T07:47:53.820Z,68.62
2022-07-27T07:49:55.229Z,69.75
2022-07-27T07:51:56.931Z,69.54
2022-07-27T07:53:57.949Z,69.11
2022-07-27T07:55:59.237Z,71.12
2022-07-27T08:00:01.476Z,67.2
2022-07-27T08:02:02.442Z,67.89
2022-07-27T08:04:03.493Z,64.8
2022-07-27T08:06:04.816Z,66.05
2022-07-27T08:08:06.553Z,66.07
2022-07-27T08:10:07.941Z,65.23
2022-07-27T08:12:08.737Z,63.32
2022-07-27T08:14:09.910Z,65.1
2022-07-27T08:16:10.805Z,66.8
2022-07-27T08:18:12.054Z,65.64
2022-07-27T08:20:13.520Z,63.28
2022-07-27T08:22:14.401Z,63.82
2022-07-27T08:24:15.373Z,66.25
2022-07-27T08:26:16.373Z,63.19
2022-07-27T08:28:17.282Z,64.81
2022-07-27T08:30:18.788Z,65.69
2022-07-27T08:32:20.188Z,66.05
2022-07-27T08:34:21.657Z,64.69
2022-07-27T08:36:23.121Z,62.41
2022-07-27T08:38:24.198Z,62.13
2022-07-27T08:40:40.852Z,62.88
2022-07-27T08:42:26.615Z,62.48
2022-07-27T08:44:27.613Z,61.47
2022-07-27T08:46:28.845Z,59.6
2022-07-27T08:48:30.045Z,60.71
2022-07-27T08:50:31.695Z,61.06
2022-07-27T08:52:33.471Z,58.87
2022-07-27T08:54:34.839Z,56.38
2022-07-27T08:56:35.827Z,57.76
2022-07-27T09:00:38.932Z,58.03
2022-07-27T09:02:40.279Z,58.29
2022-07-27T09:04:41.320Z,55.86
2022-07-27T09:06:42.589Z,54.89
2022-07-27T09:10:45.056Z,58.87
2022-07-27T09:12:46.840Z,59.03
2022-07-27T09:14:52.977Z,59.56
2022-07-27T09:17:44.485Z,60.84
2022-07-27T09:18:51.820Z,58.44
2022-07-27T09:20:53.029Z,58.03
2022-07-27T09:22:53.837Z,57.01
2022-07-27T09:24:55.243Z,56.96
2022-07-27T09:26:56.463Z,55.73
2022-07-27T09:28:58.244Z,54.5
2022-07-27T09:30:59.585Z,54.86
2022-07-27T09:33:00.767Z,55.7
2022-07-27T09:35:02.233Z,54.43
2022-07-27T09:37:03.307Z,52.23
2022-07-27T09:39:04.799Z,53.08
2022-07-27T09:41:05.842Z,52.97
2022-07-27T09:43:23.771Z,52.67
2022-07-27T09:45:08.629Z,52.33
2022-07-27T09:47:10.199Z,52.53
2022-07-27T09:49:11.374Z,52.21
2022-07-27T09:51:56.179Z,51.77
2022-07-27T09:53:41.088Z,53.91
2022-07-27T09:55:15.090Z,54.21
2022-07-27T09:59:18.330Z,53.04
2022-07-27T10:01:20.003Z,54.58
2022-07-27T10:03:21.016Z,53.96
2022-07-27T10:05:22.438Z,54.35
2022-07-27T10:07:23.466Z,54.06
2022-07-27T10:09:24.358Z,54.15
2022-07-27T10:11:25.812Z,53.96
2022-07-27T10:13:26.665Z,50.58
2022-07-27T10:15:28.453Z,50.25
2022-07-27T10:17:29.576Z,51.08
2022-07-27T10:19:31.337Z,52.44
2022-07-27T10:21:32.936Z,48.39
2022-07-27T10:23:34.474Z,47.77
2022-07-27T10:25:37.793Z,48.37
2022-07-27T10:27:36.934Z,47.92
2022-07-27T10:29:38.510Z,48.23
2022-07-27T10:31:40.224Z,50.14
2022-07-27T10:33:40.995Z,48.74
2022-07-27T10:35:42.035Z,48.97
2022-07-27T10:37:43.700Z,51.92
2022-07-27T10:39:45.376Z,50.11
2022-07-27T10:41:46.249Z,49
2022-07-27T10:43:47.114Z,47.8
2022-07-27T10:45:50.609Z,50.81
2022-07-27T10:47:49.316Z,52.55
2022-07-27T10:49:50.400Z,54.52
2022-07-27T10:51:51.429Z,54.2
2022-07-27T10:54:11.747Z,53.95
2022-07-27T10:55:53.900Z,53.62
2022-07-27T10:57:55.292Z,53.9
2022-07-27T11:00:10.061Z,53.34
2022-07-27T11:01:58.695Z,52.96
2022-07-27T11:03:59.595Z,49.54
2022-07-27T11:08:35.182Z,51.9
2022-07-27T11:10:04.877Z,52.11
2022-07-27T11:12:05.484Z,51.79
2022-07-27T11:14:07.083Z,52.49
2022-07-27T11:16:24.192Z,52.06
2022-07-27T11:18:09.997Z,51.62
2022-07-27T11:20:11.647Z,49.5
2022-07-27T11:24:14.693Z,49.67
2022-07-27T11:26:15.075Z,50.11
2022-07-27T11:28:16.283Z,49.31
2022-07-27T11:30:17.150Z,49.53
2022-07-27T11:32:18.635Z,49.38
2022-07-27T11:34:19.576Z,48.18
2022-07-27T11:36:20.784Z,47.64
2022-07-27T11:38:22.365Z,47.3
2022-07-27T11:40:53.623Z,45.79
2022-07-27T11:42:25.050Z,46.73
2022-07-27T11:44:26.534Z,48.37
2022-07-27T11:46:28.340Z,47.89
2022-07-27T11:50:30.785Z,46.92
2022-07-27T11:52:32.510Z,48.13
2022-07-27T11:54:34.104Z,45.99
2022-07-27T11:56:35.297Z,46.54
2022-07-27T11:58:36.100Z,46.22
2022-07-27T12:00:37.652Z,48.06
2022-07-27T12:02:38.476Z,47.78
2022-07-27T12:04:40.200Z,47.44
2022-07-27T12:06:41.855Z,49.27
2022-07-27T12:08:42.902Z,48.9
2022-07-27T12:10:43.875Z,47.77
2022-07-27T12:12:44.671Z,48.61
2022-07-27T12:14:45.686Z,47.99
2022-07-27T12:16:47.206Z,48.1
2022-07-27T12:18:48.178Z,47.27
2022-07-27T12:20:49.289Z,47.42
2022-07-27T12:22:50.503Z,47.49
2022-07-27T12:24:51.980Z,46.21
2022-07-27T12:26:52.996Z,46.72
2022-07-27T12:28:54.592Z,46.54
2022-07-27T12:30:56.158Z,47.14
2022-07-27T12:32:56.899Z,47.49
2022-07-27T12:33:40.606Z,46.81
2022-07-27T12:35:45.834Z,47.01
2022-07-27T12:37:43.234Z,47.19
2022-07-27T12:39:44.689Z,46.59
2022-07-27T12:41:45.608Z,47.63
2022-07-27T12:43:47.338Z,47.4
2022-07-27T12:45:48.292Z,47.29
2022-07-27T12:47:49.057Z,48.27
2022-07-27T12:49:49.958Z,46.97
2022-07-27T12:51:50.919Z,46.23
2022-07-27T12:53:51.965Z,46.65
2022-07-27T12:55:53.688Z,46.17
2022-07-27T12:59:56.698Z,44.62
2022-07-27T13:01:59.473Z,44.3
2022-07-27T13:04:00.509Z,44.47
2022-07-27T13:06:02.251Z,43.48
2022-07-27T13:08:03.223Z,45.04
2022-07-27T13:10:04.474Z,42.43
2022-07-27T13:12:05.240Z,43.59
2022-07-27T13:14:06.182Z,43.82
2022-07-27T13:16:07.084Z,45.32
2022-07-27T13:20:09.742Z,45.32
2022-07-27T13:22:11.189Z,46.09
2022-07-27T13:26:14.445Z,44.89
2022-07-27T13:28:16.177Z,44.54
2022-07-27T13:30:17.242Z,44.37
2022-07-27T13:32:18.737Z,43.86
2022-07-27T13:34:19.988Z,43
2022-07-27T13:36:20.931Z,44.22
2022-07-27T13:38:22.227Z,43.72
2022-07-27T13:40:23.448Z,43.2
2022-07-27T13:42:24.846Z,42.33
2022-07-27T13:44:50.165Z,41.82
2022-07-27T13:46:27.460Z,42.46
2022-07-27T13:48:28.295Z,43.93
2022-07-27T13:50:29.437Z,43.39
2022-07-27T13:52:30.481Z,42.72
2022-07-27T13:54:31.626Z,42.07
2022-07-27T13:56:32.640Z,42.31
2022-07-27T13:58:33.581Z,42.23
2022-07-27T14:00:34.573Z,41.9
2022-07-27T14:02:35.842Z,42.02
2022-07-27T14:04:37.305Z,40.53
2022-07-27T14:08:40.768Z,41.16
2022-07-27T14:10:41.626Z,41.66
2022-07-27T14:12:43.346Z,41.17
2022-07-27T14:14:44.344Z,40.43
2022-07-27T14:16:45.294Z,41.86
2022-07-27T14:18:46.056Z,43.91
2022-07-27T14:20:47.329Z,44.73
2022-07-27T14:22:48.800Z,44.16
2022-07-27T14:24:49.966Z,43.74
2022-07-27T14:26:51.275Z,42.37
2022-07-27T14:28:53.045Z,40.9
2022-07-27T14:30:54.268Z,41.61
2022-07-27T14:32:55.752Z,42.26
2022-07-27T14:34:57.233Z,41.91
2022-07-27T14:36:58.726Z,40.81
2022-07-27T14:41:00.349Z,41.54
2022-07-27T14:43:01.950Z,39.1
2022-07-27T14:45:03.408Z,39.05
2022-07-27T14:47:04.628Z,39.54
2022-07-27T14:51:07.792Z,41.93
2022-07-27T14:53:08.753Z,43.13
2022-07-27T14:55:10.540Z,43.78
2022-07-27T14:57:12.159Z,43.91
2022-07-27T14:59:14.219Z,42.45
2022-07-27T15:01:16.794Z,42.12
2022-07-27T15:03:16.022Z,39.28
2022-07-27T15:05:17.188Z,41.72
2022-07-27T15:07:18.599Z,40.81
2022-07-27T15:09:19.595Z,42.3
2022-07-27T15:11:21.071Z,41.98
2022-07-27T15:13:22.789Z,41.36
2022-07-27T15:15:23.888Z,40.21
2022-07-27T15:17:24.712Z,41.34
2022-07-27T15:19:26.276Z,40.76
2022-07-27T15:21:27.549Z,41.41
2022-07-27T15:23:28.934Z,41.52
2022-07-27T15:25:29.964Z,42.23
2022-07-27T15:27:31.417Z,42.38
2022-07-27T15:29:32.611Z,42.61
2022-07-27T15:31:34.157Z,42.47
2022-07-27T15:33:35.910Z,42.21
2022-07-27T15:35:37.173Z,42.53
2022-07-27T15:37:38.834Z,42.18
2022-07-27T15:39:39.836Z,42.4
2022-07-27T15:41:41.299Z,41.93
2022-07-27T15:43:43.103Z,41.73
2022-07-27T15:45:44.462Z,41.77
2022-07-27T15:49:47.214Z,40.2
2022-07-27T15:51:47.991Z,41.04
2022-07-27T15:53:49.525Z,39.55
2022-07-27T15:55:50.545Z,39.89
2022-07-27T15:57:52.195Z,39.87
2022-07-27T15:59:53.960Z,39.86
2022-07-27T16:01:55.145Z,40.72
2022-07-27T16:03:56.770Z,41.56
2022-07-27T16:05:59.186Z,40.93
2022-07-27T16:08:00.524Z,40.79
2022-07-27T16:10:02.012Z,41.39
2022-07-27T16:12:03.384Z,41.5
2022-07-27T16:14:04.315Z,40.98
2022-07-27T16:16:06.074Z,40.39
2022-07-27T16:18:07.463Z,40.74
2022-07-27T16:20:08.623Z,41.18
2022-07-27T16:22:09.873Z,41.41
2022-07-27T16:24:10.933Z,41.21
2022-07-27T16:26:12.109Z,38.63
2022-07-27T16:28:12.889Z,37.62
2022-07-27T16:30:20.528Z,37.38
2022-07-27T16:32:14.949Z,36.79
2022-07-27T16:34:16.183Z,37.35
2022-07-27T16:36:17.499Z,37.41
2022-07-27T16:38:18.532Z,38.08
2022-07-27T16:40:19.947Z,38.37
2022-07-27T16:42:21.601Z,38.71
2022-07-27T16:44:22.672Z,39.13
2022-07-27T16:46:23.962Z,37.28
2022-07-27T16:48:25.218Z,36.47
2022-07-27T16:50:26.919Z,38.15
2022-07-27T16:54:29.470Z,38.18
2022-07-27T16:56:30.996Z,38.28
2022-07-27T16:58:31.740Z,40.06
2022-07-27T17:00:38.271Z,39.6
2022-07-27T17:02:34.392Z,39.27
2022-07-27T17:04:36.090Z,40.13
2022-07-27T17:06:36.820Z,41.02
2022-07-27T17:08:38.155Z,41.52
2022-07-27T17:12:40.656Z,42.72
2022-07-27T17:14:42.152Z,42.28
2022-07-27T17:16:43.600Z,42.57
2022-07-27T17:20:46.312Z,41.6
2022-07-27T17:22:47.863Z,41.38
2022-07-27T17:24:48.923Z,42
2022-07-27T17:26:50.052Z,42.17
2022-07-27T17:28:51.420Z,42.79
2022-07-27T17:30:53.102Z,42.81
2022-07-27T17:32:54.380Z,42.8
2022-07-27T17:34:55.337Z,42.9
2022-07-27T17:36:56.309Z,43.46
2022-07-27T17:38:57.813Z,42.98
2022-07-27T17:40:59.214Z,43.4
2022-07-27T17:43:00.105Z,43.89
2022-07-27T17:45:01.196Z,44.08
2022-07-27T17:47:02.383Z,43.81
2022-07-27T17:49:04.008Z,44.12
2022-07-27T17:51:05.273Z,44.15
2022-07-27T17:53:06.969Z,43.91
2022-07-27T17:55:08.335Z,43.98
2022-07-27T17:57:09.915Z,44.77
2022-07-27T17:59:35.095Z,44.71
2022-07-27T18:01:11.681Z,44.64
2022-07-27T18:03:13.361Z,44.21
2022-07-27T18:05:14.641Z,44.57
2022-07-27T18:07:15.773Z,44.74
2022-07-27T18:09:17.325Z,44.39
2022-07-27T18:11:18.319Z,45.49
2022-07-27T18:13:19.985Z,45.29
2022-07-27T18:15:21.539Z,45.05
2022-07-27T18:17:23.349Z,44.82
2022-07-27T18:19:24.810Z,44.97
2022-07-27T18:21:25.702Z,45.07
2022-07-27T18:23:27.132Z,45.15
2022-07-27T18:25:28.942Z,45.2
2022-07-27T18:27:30.392Z,45.75
2022-07-27T18:29:32.037Z,45.49
2022-07-27T18:31:33.429Z,45.94
2022-07-27T18:35:36.175Z,46.46
2022-07-27T18:37:37.554Z,46.64
2022-07-27T18:39:38.566Z,46.75
2022-07-27T18:41:39.914Z,46.64
2022-07-27T18:45:41.930Z,47.51
2022-07-27T18:47:49.164Z,47.29
2022-07-27T18:49:45.109Z,47.85
2022-07-27T18:51:46.153Z,47.47
2022-07-27T18:53:47.195Z,47.78
2022-07-27T18:55:51.587Z,47.9
2022-07-27T18:57:50.595Z,47.72
2022-07-27T19:01:53.052Z,48.53
2022-07-27T19:03:53.876Z,48.37
2022-07-27T19:05:55.597Z,48.6
2022-07-27T19:07:57.374Z,48.84
2022-07-27T19:09:58.405Z,48.52
2022-07-27T19:12:00.190Z,48.67
2022-07-27T19:14:01.409Z,48.22
2022-07-27T19:16:03.139Z,48.24
2022-07-27T19:18:04.381Z,48.35
2022-07-27T19:20:06.049Z,48.31
2022-07-27T19:22:51.305Z,47.66
2022-07-27T19:24:54.909Z,48.47
2022-07-27T19:26:54.027Z,49
2022-07-27T19:28:55.309Z,48.76
2022-07-27T19:30:56.881Z,48.81
2022-07-27T19:32:57.804Z,49.14
2022-07-27T19:34:59.197Z,48.43
2022-07-27T19:39:05.683Z,48.78
2022-07-27T19:41:03.039Z,48.67
2022-07-27T19:43:04.552Z,48.83
2022-07-27T19:45:06.257Z,49.04
2022-07-27T19:47:07.976Z,49.52
2022-07-27T19:49:09.675Z,49.67
2022-07-27T19:51:10.548Z,50.09
2022-07-27T19:53:12.202Z,50.15
2022-07-27T19:55:13.678Z,49.7
2022-07-27T19:57:14.685Z,49.67
2022-07-27T19:59:16.405Z,49.74
2022-07-27T20:01:18.095Z,49.95
2022-07-27T20:03:18.888Z,50.2
2022-07-27T20:05:20.165Z,50.5
2022-07-27T20:07:21.671Z,50.61
2022-07-27T20:11:24.479Z,50.85
2022-07-27T20:13:25.584Z,50.42
2022-07-27T20:15:27.205Z,50.46
2022-07-27T20:17:28.341Z,50.14
2022-07-27T20:21:31.374Z,50.77
2022-07-27T20:23:32.799Z,50.3
2022-07-27T20:25:34.054Z,50.43
2022-07-27T20:27:35.168Z,50.76
2022-07-27T20:31:37.900Z,51.03
2022-07-27T20:33:38.949Z,50.74
2022-07-27T20:35:40.426Z,50.56
2022-07-27T20:37:42.010Z,51.38
2022-07-27T20:39:43.783Z,51.23
2022-07-27T20:41:45.068Z,51.75
2022-07-27T20:43:46.889Z,51.59
2022-07-27T20:45:48.117Z,51.26
2022-07-27T20:47:49.269Z,50.45
2022-07-27T20:49:50.721Z,50.76
2022-07-27T20:53:53.747Z,51.05
2022-07-27T20:55:55.258Z,50.69
2022-07-27T20:57:57.043Z,51.1
2022-07-27T20:59:58.704Z,51.53
2022-07-27T21:04:01.932Z,52.21
2022-07-27T21:06:03.581Z,51.78
2022-07-27T21:08:04.438Z,52.62
2022-07-27T21:10:05.785Z,52.76
2022-07-27T21:12:06.787Z,52.82
2022-07-27T21:14:08.402Z,52.4
2022-07-27T21:16:09.567Z,52.28
2022-07-27T21:18:10.871Z,51.9
2022-07-27T21:20:12.031Z,51.85
2022-07-27T21:22:13.543Z,52.22
2022-07-27T21:24:15.702Z,52.33
2022-07-27T21:26:18.283Z,52.22
2022-07-27T21:28:18.757Z,51.6
2022-07-27T21:30:20.075Z,51.77
2022-07-27T21:32:21.104Z,52.32
2022-07-27T21:34:22.134Z,52.41
2022-07-27T21:36:23.451Z,52.59
2022-07-27T21:38:24.605Z,52.84
2022-07-27T21:40:25.758Z,53.06
2022-07-27T21:42:27.192Z,53.69
2022-07-27T21:44:28.153Z,53.65
2022-07-27T21:46:29.276Z,52.97
2022-07-27T21:48:30.708Z,53.54
2022-07-27T21:50:32.380Z,53.59
2022-07-27T21:52:33.544Z,53.43
2022-07-27T21:54:35.054Z,54.33
2022-07-27T21:56:41.349Z,54.18
2022-07-27T21:58:37.657Z,54.87
2022-07-27T22:02:40.073Z,54.84
2022-07-27T22:04:41.637Z,54.8
2022-07-27T22:06:43.304Z,54.17
2022-07-27T22:08:44.924Z,54.74
2022-07-27T22:10:46.699Z,55.09
2022-07-27T22:12:48.293Z,55.11
2022-07-27T22:14:49.191Z,55.63
2022-07-27T22:16:50.969Z,55.55
2022-07-27T22:18:51.866Z,55.18
2022-07-27T22:20:53.261Z,55.18
2022-07-27T22:22:54.731Z,54.89
2022-07-27T22:24:55.841Z,54.88
2022-07-27T22:26:57.618Z,55.04
2022-07-27T22:28:58.873Z,54.81
2022-07-27T22:31:21.144Z,55.04
2022-07-27T22:35:03.734Z,55.73
2022-07-27T22:37:05.229Z,55.84
2022-07-27T22:39:06.805Z,56.24
2022-07-27T22:41:07.798Z,55.95
2022-07-27T22:45:11.099Z,56.82
2022-07-27T22:47:12.169Z,57.16
2022-07-27T22:49:13.446Z,57.42
2022-07-27T22:51:14.723Z,57.4
2022-07-27T22:55:16.967Z,57.56
2022-07-27T22:57:17.892Z,57.94
2022-07-27T22:59:19.079Z,58.34
2022-07-27T23:01:44.029Z,58.44
2022-07-27T23:03:21.659Z,58.66
2022-07-27T23:05:22.880Z,58.82
2022-07-27T23:07:24.732Z,59.31
2022-07-27T23:09:25.884Z,59.24
2022-07-27T23:11:26.883Z,58.84
2022-07-27T23:13:33.586Z,59.25
2022-07-27T23:15:29.131Z,59.31
2022-07-27T23:17:30.129Z,59.81
2022-07-27T23:19:31.421Z,59.84
2022-07-27T23:21:33.261Z,60.06
2022-07-27T23:23:35.224Z,60.04
2022-07-27T23:25:36.440Z,60.3
2022-07-27T23:27:37.411Z,60.65
2022-07-27T23:29:39.073Z,60.66
2022-07-27T23:33:42.401Z,61.61
2022-07-27T23:35:43.883Z,60.93
2022-07-27T23:37:44.948Z,61.57
2022-07-27T23:39:46.767Z,61.5
2022-07-27T23:43:49.527Z,61.16
2022-07-27T23:45:50.727Z,61.33
2022-07-27T23:47:52.205Z,61.61
2022-07-27T23:49:53.372Z,61.06
2022-07-27T23:51:54.939Z,61.36
2022-07-27T23:53:56.381Z,61.67
2022-07-27T23:55:57.795Z,61.31
